createdAt,value
2018-03-14T00:01:08.614Z,98511.20
2018-03-14T00:03:37.731Z,98501.82
2018-03-14T00:06:06.774Z,98507.19
2018-03-14T00:08:37.511Z,98505.57
2018-03-14T00:11:07.544Z,98517.16
2018-03-14T00:13:38.080Z,98516.56
2018-03-14T00:16:07.165Z,98515.17
2018-03-14T00:18:35.528Z,98513.64
2018-03-14T00:21:04.315Z,98521.30
2018-03-14T00:23:32.687Z,98526.16
2018-03-14T00:26:02.520Z,98522.70
2018-03-14T00:28:32.099Z,98527.20
2018-03-14T00:31:01.651Z,98526.59
2018-03-14T00:33:30.815Z,98529.39
2018-03-14T00:35:59.941Z,98532.56
2018-03-14T00:38:28.439Z,98530.12
2018-03-14T00:40:57.525Z,98534.81
2018-03-14T00:43:27.128Z,98530.88
2018-03-14T00:45:55.789Z,98538.84
2018-03-14T00:48:26.303Z,98530.63
2018-03-14T00:50:55.582Z,98536.22
2018-03-14T00:53:24.261Z,98539.05
2018-03-14T00:55:53.125Z,98533.58
2018-03-14T00:58:22.898Z,98538.84
2018-03-14T01:00:53.964Z,98544.09
2018-03-14T01:03:22.425Z,98540.96
2018-03-14T01:05:52.353Z,98541.21
2018-03-14T01:08:21.772Z,98543.88
2018-03-14T01:10:51.925Z,98542.78
2018-03-14T01:13:20.864Z,98544.13
2018-03-14T01:15:51.390Z,98539.13
2018-03-14T01:18:20.690Z,98538.25
2018-03-14T01:20:50.082Z,98538.29
2018-03-14T01:23:20.178Z,98534.73
2018-03-14T01:25:49.339Z,98529.23
2018-03-14T01:28:20.022Z,98533.59
2018-03-14T01:30:48.370Z,98536.43
2018-03-14T01:33:16.796Z,98537.73
2018-03-14T01:35:45.915Z,98538.33
2018-03-14T01:38:15.921Z,98539.85
2018-03-14T01:40:45.136Z,98545.98
2018-03-14T01:43:14.983Z,98544.72
2018-03-14T01:45:44.589Z,98548.47
2018-03-14T01:48:14.356Z,98552.79
2018-03-14T01:50:42.699Z,98548.09
2018-03-14T01:53:22.847Z,98552.70
2018-03-14T01:55:52.093Z,98547.30
2018-03-14T01:58:20.872Z,98546.30
2018-03-14T02:00:50.623Z,98546.30
2018-03-14T02:03:19.390Z,98546.70
2018-03-14T02:05:47.916Z,98552.19
2018-03-14T02:08:18.284Z,98552.70
2018-03-14T02:10:46.683Z,98550.55
2018-03-14T02:13:17.787Z,98554.66
2018-03-14T02:15:47.057Z,98561.95
2018-03-14T02:18:16.345Z,98560.19
2018-03-14T02:20:44.792Z,98562.44
2018-03-14T02:23:15.866Z,98562.60
2018-03-14T02:25:45.713Z,98565.95
2018-03-14T02:28:14.924Z,98568.53
2018-03-14T02:30:44.916Z,98568.48
2018-03-14T02:33:13.903Z,98568.96
2018-03-14T02:35:43.365Z,98567.70
2018-03-14T02:38:13.697Z,98564.73
2018-03-14T02:40:42.637Z,98562.11
2018-03-14T02:43:11.644Z,98567.45
2018-03-14T02:45:40.844Z,98561.52
2018-03-14T02:48:09.996Z,98572.10
2018-03-14T02:50:39.507Z,98571.22
2018-03-14T02:53:09.162Z,98571.00
2018-03-14T02:55:38.375Z,98557.33
2018-03-14T02:58:09.687Z,98568.36
2018-03-14T03:00:38.393Z,98563.34
2018-03-14T03:03:08.025Z,98565.96
2018-03-14T03:05:36.795Z,98562.40
2018-03-14T03:08:05.143Z,98569.17
2018-03-14T03:10:33.483Z,98570.69
2018-03-14T03:13:01.905Z,98571.03
2018-03-14T03:15:30.469Z,98575.70
2018-03-14T03:18:01.297Z,98576.42
2018-03-14T03:20:30.533Z,98583.69
2018-03-14T03:22:59.975Z,98577.55
2018-03-14T03:25:28.694Z,98582.21
2018-03-14T03:27:57.343Z,98583.34
2018-03-14T03:30:26.529Z,98575.91
2018-03-14T03:32:54.877Z,98580.99
2018-03-14T03:35:23.308Z,98582.65
2018-03-14T03:37:52.157Z,98584.59
2018-03-14T03:40:22.437Z,98575.72
2018-03-14T03:42:51.519Z,98576.57
2018-03-14T03:45:19.891Z,98579.54
2018-03-14T03:47:49.435Z,98582.73
2018-03-14T03:50:17.827Z,98583.03
2018-03-14T03:52:47.396Z,98580.27
2018-03-14T03:55:16.780Z,98576.95
2018-03-14T03:57:46.829Z,98582.55
2018-03-14T04:00:17.511Z,98581.35
2018-03-14T04:02:47.082Z,98578.50
2018-03-14T04:05:16.794Z,98582.93
2018-03-14T04:07:45.170Z,98582.47
2018-03-14T04:10:14.132Z,98577.21
2018-03-14T04:12:43.854Z,98580.88
2018-03-14T04:15:12.238Z,98580.05
2018-03-14T04:17:41.606Z,98576.88
2018-03-14T04:20:10.924Z,98577.08
2018-03-14T04:22:39.294Z,98579.54
2018-03-14T04:25:10.065Z,98580.31
2018-03-14T04:27:39.099Z,98583.50
2018-03-14T04:30:08.791Z,98587.05
2018-03-14T04:32:38.848Z,98584.59
2018-03-14T04:35:09.402Z,98583.05
2018-03-14T04:37:37.780Z,98575.16
2018-03-14T04:40:07.340Z,98572.64
2018-03-14T04:42:35.676Z,98572.80
2018-03-14T04:45:04.759Z,98585.66
2018-03-14T04:47:33.251Z,98581.28
2018-03-14T04:50:02.575Z,98581.70
2018-03-14T04:52:32.381Z,98579.35
2018-03-14T04:55:02.209Z,98583.58
2018-03-14T04:57:30.605Z,98582.97
2018-03-14T04:59:59.044Z,98581.00
2018-03-14T05:02:29.292Z,98578.35
2018-03-14T05:04:58.464Z,98586.20
2018-03-14T05:07:28.585Z,98587.09
2018-03-14T05:09:57.924Z,98597.13
2018-03-14T05:12:28.867Z,98591.05
2018-03-14T05:14:57.205Z,98591.00
2018-03-14T05:17:25.556Z,98593.28
2018-03-14T05:19:54.137Z,98593.06
2018-03-14T05:22:24.415Z,98594.84
2018-03-14T05:24:52.749Z,98595.87
2018-03-14T05:27:21.889Z,98596.70
2018-03-14T05:29:52.182Z,98598.95
2018-03-14T05:32:21.898Z,98592.28
2018-03-14T05:34:52.422Z,98589.43
2018-03-14T05:37:22.611Z,98597.41
2018-03-14T05:39:52.658Z,98596.50
2018-03-14T05:42:22.531Z,98591.70
2018-03-14T05:44:51.708Z,98593.09
2018-03-14T05:47:23.377Z,98597.03
2018-03-14T05:49:51.740Z,98587.94
2018-03-14T05:52:20.123Z,98591.66
2018-03-14T05:54:49.379Z,98592.90
2018-03-14T05:57:19.363Z,98595.68
2018-03-14T05:59:49.495Z,98600.38
2018-03-14T06:02:17.930Z,98596.13
2018-03-14T06:04:46.887Z,98600.28
2018-03-14T06:07:16.207Z,98601.64
2018-03-14T06:09:45.080Z,98609.09
2018-03-14T06:12:13.789Z,98599.87
2018-03-14T06:14:42.158Z,98608.20
2018-03-14T06:17:10.548Z,98608.97
2018-03-14T06:19:41.147Z,98610.71
2018-03-14T06:22:10.095Z,98606.06
2018-03-14T06:24:40.079Z,98603.94
2018-03-14T06:27:08.450Z,98602.41
2018-03-14T06:29:38.586Z,98598.34
2018-03-14T06:32:07.050Z,98603.05
2018-03-14T06:34:35.451Z,98599.83
2018-03-14T06:37:05.741Z,98608.97
2018-03-14T06:39:34.937Z,98614.05
2018-03-14T06:42:04.201Z,98610.38
2018-03-14T06:44:34.313Z,98611.64
2018-03-14T06:47:02.691Z,98611.13
2018-03-14T06:49:32.530Z,98619.30
2018-03-14T06:52:01.860Z,98616.98
2018-03-14T06:54:31.077Z,98621.22
2018-03-14T06:57:02.504Z,98620.87
2018-03-14T07:03:04.124Z,98626.38
2018-03-14T07:05:46.179Z,98625.91
2018-03-14T07:08:15.457Z,98626.42
2018-03-14T07:10:44.098Z,98624.30
2018-03-14T07:13:14.119Z,98626.84
2018-03-14T07:15:43.527Z,98628.36
2018-03-14T07:18:12.652Z,98629.63
2018-03-14T07:20:41.830Z,98626.41
2018-03-14T07:23:11.120Z,98628.19
2018-03-14T07:25:40.070Z,98628.95
2018-03-14T07:28:08.488Z,98630.64
2018-03-14T07:30:38.112Z,98628.35
2018-03-14T07:33:08.297Z,98630.03
2018-03-14T07:35:36.919Z,98633.20
2018-03-14T07:38:06.787Z,98632.31
2018-03-14T07:40:35.364Z,98638.32
2018-03-14T07:43:04.939Z,98639.31
2018-03-14T07:45:34.935Z,98647.27
2018-03-14T07:48:03.884Z,98647.09
2018-03-14T07:50:33.162Z,98651.59
2018-03-14T07:53:02.344Z,98647.52
2018-03-14T07:55:31.004Z,98645.36
2018-03-14T07:57:59.403Z,98650.28
2018-03-14T08:00:28.940Z,98649.81
2018-03-14T08:02:57.292Z,98655.27
2018-03-14T08:05:26.930Z,98651.41
2018-03-14T08:07:56.399Z,98648.08
2018-03-14T08:10:25.665Z,98645.63
2018-03-14T08:12:57.213Z,98644.14
2018-03-14T08:15:26.386Z,98647.52
2018-03-14T08:17:55.585Z,98649.36
2018-03-14T08:20:24.694Z,98653.89
2018-03-14T08:22:57.855Z,98651.17
2018-03-14T08:25:26.719Z,98655.22
2018-03-14T08:27:56.513Z,98654.23
2018-03-14T08:30:25.027Z,98647.81
2018-03-14T08:32:55.850Z,98654.58
2018-03-14T08:35:24.199Z,98651.09
2018-03-14T08:37:53.233Z,98657.11
2018-03-14T08:40:23.252Z,98648.48
2018-03-14T08:42:53.471Z,98657.14
2018-03-14T08:45:23.692Z,98659.86
2018-03-14T08:47:52.023Z,98659.47
2018-03-14T08:50:22.175Z,98662.30
2018-03-14T08:52:51.501Z,98662.38
2018-03-14T08:55:20.719Z,98660.44
2018-03-14T08:57:50.348Z,98663.30
2018-03-14T09:00:19.517Z,98663.58
2018-03-14T09:02:47.858Z,98663.36
2018-03-14T09:05:17.070Z,98658.99
2018-03-14T09:07:48.571Z,98652.78
2018-03-14T09:10:17.546Z,98652.27
2018-03-14T09:12:45.947Z,98653.07
2018-03-14T09:15:14.683Z,98652.70
2018-03-14T09:17:43.024Z,98650.64
2018-03-14T09:20:11.771Z,98645.42
2018-03-14T09:22:41.357Z,98650.82
2018-03-14T09:25:09.754Z,98656.84
2018-03-14T09:27:39.596Z,98655.05
2018-03-14T09:30:08.466Z,98655.91
2018-03-14T09:32:39.457Z,98658.34
2018-03-14T09:35:08.080Z,98657.27
2018-03-14T09:37:39.406Z,98649.98
2018-03-14T09:40:10.534Z,98658.42
2018-03-14T09:42:39.222Z,98661.94
2018-03-14T09:45:07.892Z,98664.10
2018-03-14T09:47:36.943Z,98664.13
2018-03-14T09:50:06.776Z,98669.48
2018-03-14T09:52:36.899Z,98666.06
2018-03-14T09:55:05.533Z,98665.77
2018-03-14T09:57:35.524Z,98660.64
2018-03-14T10:00:05.834Z,98659.31
2018-03-14T10:02:34.239Z,98650.83
2018-03-14T10:05:03.499Z,98652.21
2018-03-14T10:07:33.883Z,98652.72
2018-03-14T10:10:03.724Z,98657.69
2018-03-14T10:12:32.119Z,98661.25
2018-03-14T10:15:00.841Z,98660.23
2018-03-14T10:17:29.884Z,98660.16
2018-03-14T10:19:59.615Z,98665.09
2018-03-14T10:22:28.313Z,98662.13
2018-03-14T10:24:59.003Z,98664.19
2018-03-14T10:27:28.187Z,98654.41
2018-03-14T10:29:56.614Z,98661.26
2018-03-14T10:32:26.629Z,98657.27
2018-03-14T10:34:55.761Z,98658.21
2018-03-14T10:37:24.440Z,98659.83
2018-03-14T10:39:54.647Z,98655.50
2018-03-14T10:42:24.729Z,98654.55
2018-03-14T10:44:53.473Z,98651.25
2018-03-14T10:47:21.866Z,98659.83
2018-03-14T10:49:51.985Z,98654.69
2018-03-14T10:52:22.812Z,98658.91
2018-03-14T10:54:52.126Z,98659.53
2018-03-14T10:57:21.468Z,98661.02
2018-03-14T10:59:51.557Z,98663.32
2018-03-14T11:02:22.997Z,98666.61
2018-03-14T11:04:53.118Z,98653.63
2018-03-14T11:07:22.208Z,98652.55
2018-03-14T11:09:51.291Z,98658.66
2018-03-14T11:12:20.350Z,98650.63
2018-03-14T11:14:50.611Z,98646.64
2018-03-14T11:17:19.849Z,98651.34
2018-03-14T11:19:48.936Z,98653.31
2018-03-14T11:22:17.841Z,98650.42
2018-03-14T11:24:47.624Z,98648.31
2018-03-14T11:27:16.791Z,98649.11
2018-03-14T11:29:46.494Z,98645.59
2018-03-14T11:32:14.913Z,98645.77
2018-03-14T11:34:44.435Z,98647.36
2018-03-14T11:37:13.146Z,98646.34
2018-03-14T11:39:43.061Z,98651.80
2018-03-14T11:42:11.511Z,98651.96
2018-03-14T11:44:41.106Z,98643.51
2018-03-14T11:47:18.365Z,98634.05
2018-03-14T11:49:47.671Z,98637.77
2018-03-14T11:52:16.332Z,98636.70
2018-03-14T11:54:45.866Z,98637.07
2018-03-14T11:57:16.791Z,98634.25
2018-03-14T11:59:45.629Z,98627.90
2018-03-14T12:02:13.976Z,98621.41
2018-03-14T12:04:44.439Z,98616.06
2018-03-14T12:07:13.190Z,98617.38
2018-03-14T12:09:43.001Z,98612.16
2018-03-14T12:12:11.616Z,98609.01
2018-03-14T12:14:41.571Z,98603.32
2018-03-14T12:17:10.571Z,98599.09
2018-03-14T12:19:39.040Z,98602.00
2018-03-14T12:22:13.347Z,98593.54
2018-03-14T12:24:42.660Z,98590.55
2018-03-14T12:27:11.994Z,98587.59
2018-03-14T12:29:41.296Z,98582.03
2018-03-14T12:32:11.027Z,98578.12
2018-03-14T12:34:43.038Z,98568.17
2018-03-14T12:37:12.239Z,98563.80
2018-03-14T12:39:41.864Z,98558.15
2018-03-14T12:42:11.221Z,98559.13
2018-03-14T12:44:41.159Z,98545.69
2018-03-14T12:47:10.006Z,98539.85
2018-03-14T12:49:38.557Z,98523.23
2018-03-14T12:52:07.247Z,98517.98
2018-03-14T12:54:36.303Z,98518.56
2018-03-14T12:57:04.662Z,98516.98
2018-03-14T12:59:33.217Z,98512.77
2018-03-14T13:02:02.442Z,98509.13
2018-03-14T13:04:30.986Z,98509.70
2018-03-14T13:07:01.087Z,98514.81
2018-03-14T13:09:29.462Z,98513.08
2018-03-14T13:11:57.892Z,98503.75
2018-03-14T13:14:26.224Z,98503.84
2018-03-14T13:16:56.035Z,98495.77
2018-03-14T13:19:24.956Z,98493.87
2018-03-14T13:21:53.318Z,98485.56
2018-03-14T13:24:23.570Z,98484.31
2018-03-14T13:26:53.117Z,98482.17
2018-03-14T13:29:22.743Z,98483.61
2018-03-14T13:31:51.305Z,98479.08
2018-03-14T13:34:19.725Z,98481.86
2018-03-14T13:36:48.151Z,98470.44
2018-03-14T13:39:16.630Z,98473.50
2018-03-14T13:41:45.760Z,98469.03
2018-03-14T13:44:14.961Z,98464.58
2018-03-14T13:46:43.342Z,98463.37
2018-03-14T13:49:12.594Z,98459.44
2018-03-14T13:51:41.016Z,98449.92
2018-03-14T13:54:10.144Z,98450.38
2018-03-14T13:56:39.522Z,98450.23
2018-03-14T13:59:08.166Z,98446.45
2018-03-14T14:01:38.119Z,98434.16
2018-03-14T14:04:07.307Z,98428.09
2018-03-14T14:06:36.435Z,98429.91
2018-03-14T14:09:05.775Z,98426.09
2018-03-14T14:11:34.994Z,98424.39
2018-03-14T14:14:03.459Z,98428.20
2018-03-14T14:16:32.779Z,98422.06
2018-03-14T14:19:02.803Z,98415.21
2018-03-14T14:21:32.721Z,98419.74
2018-03-14T14:24:01.161Z,98422.14
2018-03-14T14:26:30.172Z,98422.48
2018-03-14T14:29:00.363Z,98418.66
2018-03-14T14:31:28.713Z,98406.53
2018-03-14T14:33:57.065Z,98407.22
2018-03-14T14:36:28.430Z,98397.19
2018-03-14T14:38:56.836Z,98394.88
2018-03-14T14:41:25.255Z,98391.04
2018-03-14T14:43:54.525Z,98386.20
2018-03-14T14:46:24.311Z,98386.69
2018-03-14T14:48:55.114Z,98380.45
2018-03-14T14:51:23.795Z,98372.01
2018-03-14T14:53:53.977Z,98360.03
2018-03-14T14:56:22.396Z,98360.91
2018-03-14T14:58:52.740Z,98361.41
2018-03-14T15:01:21.176Z,98360.34
2018-03-14T15:03:51.110Z,98356.84
2018-03-14T15:06:20.238Z,98344.95
2018-03-14T15:08:49.131Z,98343.55
2018-03-14T15:11:18.403Z,98343.34
2018-03-14T15:13:49.541Z,98335.02
2018-03-14T15:16:19.266Z,98341.16
2018-03-14T15:18:48.284Z,98333.49
2018-03-14T15:21:18.530Z,98325.23
2018-03-14T15:23:47.623Z,98321.72
2018-03-14T15:26:16.026Z,98318.78
2018-03-14T15:28:45.163Z,98321.09
2018-03-14T15:31:13.622Z,98315.00
2018-03-14T15:33:42.370Z,98318.36
2018-03-14T15:36:10.714Z,98315.28
2018-03-14T15:38:42.188Z,98317.14
2018-03-14T15:41:13.384Z,98307.80
2018-03-14T15:43:42.106Z,98307.79
2018-03-14T15:46:10.528Z,98306.57
2018-03-14T15:48:43.194Z,98292.59
2018-03-14T15:51:14.109Z,98293.17
2018-03-14T15:53:44.175Z,98295.39
2018-03-14T15:56:13.045Z,98288.92
2018-03-14T15:58:44.660Z,98291.56
2018-03-14T16:01:13.275Z,98285.69
2018-03-14T16:03:45.368Z,98286.08
2018-03-14T16:06:15.055Z,98285.39
2018-03-14T16:08:43.419Z,98282.75
2018-03-14T16:11:12.901Z,98285.87
2018-03-14T16:13:41.262Z,98282.27
2018-03-14T16:16:11.988Z,98287.70
2018-03-14T16:18:40.923Z,98284.59
2018-03-14T16:21:11.624Z,98290.02
2018-03-14T16:23:40.487Z,98290.02
2018-03-14T16:26:09.690Z,98298.63
2018-03-14T16:28:39.609Z,98304.36
2018-03-14T16:31:08.793Z,98301.02
2018-03-14T16:33:38.297Z,98306.95
2018-03-14T16:36:07.589Z,98299.30
2018-03-14T16:38:36.063Z,98294.71
2018-03-14T16:41:05.830Z,98300.86
2018-03-14T16:43:35.682Z,98297.78
2018-03-14T16:46:04.034Z,98295.70
2018-03-14T16:48:33.242Z,98297.80
2018-03-14T16:51:03.248Z,98298.95
2018-03-14T16:53:31.659Z,98301.72
2018-03-14T16:56:00.676Z,98304.71
2018-03-14T16:58:30.746Z,98303.81
2018-03-14T17:00:59.135Z,98303.33
2018-03-14T17:03:28.997Z,98302.39
2018-03-14T17:05:57.868Z,98301.84
2018-03-14T17:08:29.650Z,98303.81
2018-03-14T17:11:00.219Z,98302.12
2018-03-14T17:13:29.325Z,98301.37
2018-03-14T17:15:58.559Z,98300.89
2018-03-14T17:18:27.188Z,98307.41
2018-03-14T17:20:56.262Z,98311.17
2018-03-14T17:23:24.666Z,98316.78
2018-03-14T17:25:53.172Z,98310.56
2018-03-14T17:28:21.596Z,98311.63
2018-03-14T17:30:51.750Z,98319.24
2018-03-14T17:33:20.987Z,98320.72
2018-03-14T17:35:50.408Z,98323.98
2018-03-14T17:38:20.250Z,98325.48
2018-03-14T17:40:50.221Z,98326.13
2018-03-14T17:43:19.467Z,98324.02
2018-03-14T17:45:47.873Z,98321.98
2018-03-14T17:48:18.836Z,98318.20
2018-03-14T17:50:49.163Z,98325.06
2018-03-14T17:53:17.614Z,98331.41
2018-03-14T17:55:46.399Z,98329.30
2018-03-14T17:58:16.746Z,98333.78
2018-03-14T18:00:46.079Z,98332.15
2018-03-14T18:03:16.976Z,98330.94
2018-03-14T18:05:46.164Z,98331.59
2018-03-14T18:08:15.096Z,98330.98
2018-03-14T18:10:44.559Z,98328.84
2018-03-14T18:13:14.095Z,98336.22
2018-03-14T18:15:44.407Z,98335.34
2018-03-14T18:18:14.244Z,98332.02
2018-03-14T18:20:43.785Z,98333.82
2018-03-14T18:23:12.210Z,98329.53
2018-03-14T18:25:41.316Z,98327.91
2018-03-14T18:28:10.344Z,98316.47
2018-03-14T18:30:38.688Z,98318.89
2018-03-14T18:33:07.686Z,98310.69
2018-03-14T18:35:36.951Z,98318.11
2018-03-14T18:38:08.879Z,98314.27
2018-03-14T18:40:39.649Z,98318.54
2018-03-14T18:43:11.255Z,98314.59
2018-03-14T18:45:40.255Z,98320.08
2018-03-14T18:48:09.356Z,98309.23
2018-03-14T18:50:39.956Z,98302.84
2018-03-14T18:53:11.144Z,98296.87
2018-03-14T18:55:42.135Z,98296.82
2018-03-14T18:58:11.064Z,98292.03
2018-03-14T19:00:40.127Z,98291.23
2018-03-14T19:03:10.425Z,98288.05
2018-03-14T19:05:42.433Z,98291.91
2018-03-14T19:08:11.680Z,98287.64
2018-03-14T19:10:41.304Z,98290.64
2018-03-14T19:13:11.352Z,98284.38
2018-03-14T19:15:41.300Z,98285.04
2018-03-14T19:18:09.651Z,98274.09
2018-03-14T19:20:38.086Z,98270.87
2018-03-14T19:23:07.031Z,98271.98
2018-03-14T19:25:35.600Z,98267.19
2018-03-14T19:28:05.362Z,98266.72
2018-03-14T19:30:33.743Z,98267.77
2018-03-14T19:33:02.891Z,98262.98
2018-03-14T19:35:31.446Z,98267.07
2018-03-14T19:38:00.664Z,98256.36
2018-03-14T19:40:29.611Z,98250.14
2018-03-14T19:42:58.981Z,98246.88
2018-03-14T19:45:27.366Z,98247.44
2018-03-14T19:47:57.389Z,98244.45
2018-03-14T19:50:27.067Z,98251.09
2018-03-14T19:52:55.797Z,98247.31
2018-03-14T19:55:24.794Z,98243.73
2018-03-14T19:57:53.501Z,98243.28
2018-03-14T20:00:23.004Z,98246.38
2018-03-14T20:02:54.920Z,98241.89
2018-03-14T20:05:24.278Z,98243.38
2018-03-14T20:07:52.620Z,98246.33
2018-03-14T20:10:20.986Z,98244.82
2018-03-14T20:12:51.293Z,98244.17
2018-03-14T20:15:20.363Z,98237.43
2018-03-14T20:17:48.733Z,98238.65
2018-03-14T20:20:17.560Z,98234.11
2018-03-14T20:22:46.769Z,98232.00
2018-03-14T20:25:15.141Z,98224.78
2018-03-14T20:27:44.234Z,98227.45
2018-03-14T20:30:13.453Z,98224.83
2018-03-14T20:32:41.873Z,98220.26
2018-03-14T20:35:11.351Z,98217.82
2018-03-14T20:37:40.493Z,98212.63
2018-03-14T20:40:08.898Z,98209.85
2018-03-14T20:42:37.294Z,98211.77
2018-03-14T20:45:06.037Z,98209.63
2018-03-14T20:47:36.110Z,98210.28
2018-03-14T20:50:04.574Z,98199.72
2018-03-14T20:52:33.587Z,98202.03
2018-03-14T20:55:03.700Z,98200.56
2018-03-14T20:57:32.200Z,98196.95
2018-03-14T21:00:00.574Z,98196.67
2018-03-14T21:02:31.033Z,98197.66
2018-03-14T21:04:59.378Z,98192.25
2018-03-14T21:07:27.766Z,98183.77
2018-03-14T21:09:56.275Z,98179.53
2018-03-14T21:12:25.787Z,98178.69
2018-03-14T21:14:55.421Z,98175.66
2018-03-14T21:17:23.760Z,98171.84
2018-03-14T21:19:54.037Z,98170.91
2018-03-14T21:22:22.435Z,98165.62
2018-03-14T21:24:51.616Z,98155.30
2018-03-14T21:27:20.796Z,98154.11
2018-03-14T21:29:50.008Z,98155.19
2018-03-14T21:32:18.798Z,98151.45
2018-03-14T21:34:47.150Z,98148.16
2018-03-14T21:37:16.795Z,98150.39
2018-03-14T21:39:46.597Z,98151.58
2018-03-14T21:42:15.878Z,98151.42
2018-03-14T21:44:45.117Z,98142.61
2018-03-14T21:47:16.522Z,98142.69
2018-03-14T21:49:45.954Z,98135.48
2018-03-14T21:52:14.308Z,98137.12
2018-03-14T21:54:42.915Z,98126.56
2018-03-14T21:57:19.554Z,98120.48
2018-03-14T21:59:50.694Z,98111.68
2018-03-14T22:02:19.093Z,98114.50
2018-03-14T22:04:48.067Z,98106.20
2018-03-14T22:07:16.471Z,98107.51
2018-03-14T22:09:46.315Z,98103.25
2018-03-14T22:12:21.838Z,98097.09
2018-03-14T22:14:51.807Z,98098.40
2018-03-14T22:17:22.363Z,98099.04
2018-03-14T22:19:50.723Z,98096.41
2018-03-14T22:22:20.473Z,98092.18
2018-03-14T22:24:49.174Z,98096.91
2018-03-14T22:27:18.817Z,98084.31
2018-03-14T22:29:47.839Z,98085.47
2018-03-14T22:32:16.394Z,98082.66
2018-03-14T22:34:44.777Z,98083.22
2018-03-14T22:37:14.048Z,98088.23
2018-03-14T22:39:43.186Z,98084.91
2018-03-14T22:42:11.988Z,98087.59
2018-03-14T22:44:41.291Z,98083.91
2018-03-14T22:47:10.478Z,98080.92
2018-03-14T22:49:40.092Z,98084.75
2018-03-14T22:52:08.460Z,98081.33
2018-03-14T22:54:36.786Z,98083.14
2018-03-14T22:57:05.378Z,98088.11
2018-03-14T22:59:33.774Z,98074.91
2018-03-14T23:02:02.201Z,98074.91
2018-03-14T23:04:31.237Z,98075.34
2018-03-14T23:07:00.063Z,98078.10
2018-03-14T23:09:29.270Z,98074.52
2018-03-14T23:11:57.670Z,98072.13
2018-03-14T23:14:27.995Z,98071.33
2018-03-14T23:16:56.307Z,98069.69
2018-03-14T23:19:26.051Z,98073.03
2018-03-14T23:21:56.299Z,98062.95
2018-03-14T23:24:24.654Z,98063.88
2018-03-14T23:26:53.027Z,98066.79
2018-03-14T23:29:22.613Z,98057.05
2018-03-14T23:31:54.106Z,98051.45
2018-03-14T23:34:22.678Z,98045.53
2018-03-14T23:36:51.055Z,98036.26
2018-03-14T23:39:19.419Z,98029.19
2018-03-14T23:41:47.797Z,98028.66
2018-03-14T23:44:16.287Z,98022.83
2018-03-14T23:46:44.617Z,98016.70
2018-03-14T23:49:13.721Z,98013.31
2018-03-14T23:51:42.341Z,98008.03
2018-03-14T23:54:11.576Z,98007.01
2018-03-14T23:56:40.381Z,98005.52
2018-03-14T23:59:10.047Z,98000.49
